sensor_id;sensor_type;location;lat;lon;timestamp;temperature;humidity
36856;DHT22;22788;51.434;6.786;2023-02-15T07:24:40;6.60;99.90
36856;DHT22;22788;51.434;6.786;2023-02-15T07:29:33;6.10;99.90
36856;DHT22;22788;51.434;6.786;2023-02-15T07:31:59;6.20;99.90
36856;DHT22;22788;51.434;6.786;2023-02-15T07:34:25;6.10;99.90
36856;DHT22;22788;51.434;6.786;2023-02-15T07:36:51;6.10;99.90
36856;DHT22;22788;51.434;6.786;2023-02-15T07:39:17;6.00;99.90
36856;DHT22;22788;51.434;6.786;2023-02-15T07:41:44;6.10;99.90
36856;DHT22;22788;51.434;6.786;2023-02-15T07:44:11;6.10;99.90
36856;DHT22;22788;51.434;6.786;2023-02-15T07:46:37;6.10;99.90
36856;DHT22;22788;51.434;6.786;2023-02-15T07:49:03;6.10;99.90
36856;DHT22;22788;51.434;6.786;2023-02-15T07:51:29;6.10;99.90
36856;DHT22;22788;51.434;6.786;2023-02-15T07:53:55;6.10;99.90
36856;DHT22;22788;51.434;6.786;2023-02-15T07:56:21;6.00;99.90
36856;DHT22;22788;51.434;6.786;2023-02-15T07:58:48;6.00;99.90
36856;DHT22;22788;51.434;6.786;2023-02-15T08:01:14;6.00;99.90
36856;DHT22;22788;51.434;6.786;2023-02-15T08:03:41;6.00;99.90
36856;DHT22;22788;51.434;6.786;2023-02-15T08:06:07;6.00;99.90
36856;DHT22;22788;51.434;6.786;2023-02-15T08:08:34;6.00;99.90
36856;DHT22;22788;51.434;6.786;2023-02-15T08:11:01;5.90;99.90
36856;DHT22;22788;51.434;6.786;2023-02-15T08:13:27;5.90;99.90
36856;DHT22;22788;51.434;6.786;2023-02-15T08:15:55;5.90;99.90
36856;DHT22;22788;51.434;6.786;2023-02-15T08:18:21;5.90;99.90
36856;DHT22;22788;51.434;6.786;2023-02-15T08:20:49;5.90;99.90
36856;DHT22;22788;51.434;6.786;2023-02-15T08:23:15;6.00;99.90
36856;DHT22;22788;51.434;6.786;2023-02-15T08:25:41;6.10;99.90
36856;DHT22;22788;51.434;6.786;2023-02-15T08:28:07;6.00;99.90
36856;DHT22;22788;51.434;6.786;2023-02-15T08:30:33;6.00;99.90
36856;DHT22;22788;51.434;6.786;2023-02-15T08:33:01;6.00;99.90
36856;DHT22;22788;51.434;6.786;2023-02-15T08:35:27;6.00;99.90
36856;DHT22;22788;51.434;6.786;2023-02-15T08:37:53;5.90;99.90
36856;DHT22;22788;51.434;6.786;2023-02-15T08:40:19;5.90;99.90
36856;DHT22;22788;51.434;6.786;2023-02-15T08:42:45;6.00;99.90
36856;DHT22;22788;51.434;6.786;2023-02-15T08:45:11;6.00;99.90
36856;DHT22;22788;51.434;6.786;2023-02-15T08:47:37;6.00;99.90
36856;DHT22;22788;51.434;6.786;2023-02-15T08:50:05;6.00;99.90
36856;DHT22;22788;51.434;6.786;2023-02-15T08:52:31;6.00;99.90
36856;DHT22;22788;51.434;6.786;2023-02-15T08:54:57;6.00;99.90
36856;DHT22;22788;51.434;6.786;2023-02-15T08:57:23;6.00;99.90
36856;DHT22;22788;51.434;6.786;2023-02-15T08:59:49;6.10;99.90
36856;DHT22;22788;51.434;6.786;2023-02-15T09:02:16;6.10;99.90
36856;DHT22;22788;51.434;6.786;2023-02-15T09:04:42;6.10;99.90
36856;DHT22;22788;51.434;6.786;2023-02-15T09:07:09;6.10;99.90
36856;DHT22;22788;51.434;6.786;2023-02-15T09:09:35;6.10;99.90
36856;DHT22;22788;51.434;6.786;2023-02-15T09:12:01;6.10;99.90
36856;DHT22;22788;51.434;6.786;2023-02-15T09:14:27;6.10;99.90
36856;DHT22;22788;51.434;6.786;2023-02-15T09:16:54;6.20;99.90
36856;DHT22;22788;51.434;6.786;2023-02-15T09:19:21;6.10;99.90
36856;DHT22;22788;51.434;6.786;2023-02-15T09:21:48;6.10;99.90
36856;DHT22;22788;51.434;6.786;2023-02-15T09:24:16;6.10;99.90
36856;DHT22;22788;51.434;6.786;2023-02-15T09:26:46;6.10;99.90
36856;DHT22;22788;51.434;6.786;2023-02-15T09:29:14;6.10;99.90
36856;DHT22;22788;51.434;6.786;2023-02-15T09:31:42;6.10;99.90
36856;DHT22;22788;51.434;6.786;2023-02-15T09:34:08;6.20;99.90
36856;DHT22;22788;51.434;6.786;2023-02-15T09:36:36;6.10;99.90
36856;DHT22;22788;51.434;6.786;2023-02-15T09:39:06;6.10;99.90
36856;DHT22;22788;51.434;6.786;2023-02-15T09:48:38;6.20;99.90
36856;DHT22;22788;51.434;6.786;2023-02-15T09:51:23;6.20;99.90
36856;DHT22;22788;51.434;6.786;2023-02-15T09:54:09;6.20;99.90
36856;DHT22;22788;51.434;6.786;2023-02-15T09:56:40;6.20;99.90
36856;DHT22;22788;51.434;6.786;2023-02-15T09:59:15;6.20;99.90
36856;DHT22;22788;51.434;6.786;2023-02-15T10:01:51;6.20;99.90
36856;DHT22;22788;51.434;6.786;2023-02-15T10:04:45;6.30;99.90
36856;DHT22;22788;51.434;6.786;2023-02-15T10:07:22;6.30;99.90
36856;DHT22;22788;51.434;6.786;2023-02-15T10:10:03;6.30;99.90
36856;DHT22;22788;51.434;6.786;2023-02-15T10:12:55;6.30;99.90
36856;DHT22;22788;51.434;6.786;2023-02-15T10:15:44;6.30;99.90
36856;DHT22;22788;51.434;6.786;2023-02-15T10:18:29;6.40;99.90
36856;DHT22;22788;51.434;6.786;2023-02-15T10:21:07;6.40;99.90
36856;DHT22;22788;51.434;6.786;2023-02-15T10:23:54;6.40;99.90
36856;DHT22;22788;51.434;6.786;2023-02-15T10:26:30;6.40;99.90
36856;DHT22;22788;51.434;6.786;2023-02-15T10:29:03;6.40;99.90
36856;DHT22;22788;51.434;6.786;2023-02-15T10:31:39;6.40;99.90
36856;DHT22;22788;51.434;6.786;2023-02-15T10:34:15;6.50;99.90
36856;DHT22;22788;51.434;6.786;2023-02-15T10:39:42;6.60;99.90
36856;DHT22;22788;51.434;6.786;2023-02-15T10:42:17;6.60;99.90
36856;DHT22;22788;51.434;6.786;2023-02-15T10:44:57;6.60;99.90
36856;DHT22;22788;51.434;6.786;2023-02-15T10:47:51;6.60;99.90
36856;DHT22;22788;51.434;6.786;2023-02-15T10:50:28;6.70;99.90
36856;DHT22;22788;51.434;6.786;2023-02-15T10:56:19;6.80;99.90
36856;DHT22;22788;51.434;6.786;2023-02-15T10:58:57;6.80;99.90
36856;DHT22;22788;51.434;6.786;2023-02-15T11:01:30;6.90;99.90
36856;DHT22;22788;51.434;6.786;2023-02-15T11:04:15;7.10;99.90
36856;DHT22;22788;51.434;6.786;2023-02-15T11:06:46;7.00;99.90
36856;DHT22;22788;51.434;6.786;2023-02-15T11:09:14;7.00;99.90
36856;DHT22;22788;51.434;6.786;2023-02-15T11:11:46;7.20;99.90
36856;DHT22;22788;51.434;6.786;2023-02-15T11:14:15;7.20;99.90
36856;DHT22;22788;51.434;6.786;2023-02-15T11:16:45;7.20;99.90
36856;DHT22;22788;51.434;6.786;2023-02-15T11:19:16;7.20;99.90
36856;DHT22;22788;51.434;6.786;2023-02-15T11:21:46;7.10;99.90
36856;DHT22;22788;51.434;6.786;2023-02-15T11:24:17;7.00;99.90
36856;DHT22;22788;51.434;6.786;2023-02-15T11:26:48;7.00;99.90
36856;DHT22;22788;51.434;6.786;2023-02-15T11:29:21;7.10;99.90
36856;DHT22;22788;51.434;6.786;2023-02-15T11:31:51;7.10;99.90
36856;DHT22;22788;51.434;6.786;2023-02-15T11:34:22;7.20;99.90
36856;DHT22;22788;51.434;6.786;2023-02-15T11:36:50;7.20;99.90
36856;DHT22;22788;51.434;6.786;2023-02-15T11:39:18;7.20;99.90
36856;DHT22;22788;51.434;6.786;2023-02-15T11:41:50;7.20;99.90
36856;DHT22;22788;51.434;6.786;2023-02-15T11:44:21;7.20;99.90
36856;DHT22;22788;51.434;6.786;2023-02-15T11:46:49;7.40;99.90
36856;DHT22;22788;51.434;6.786;2023-02-15T11:49:22;7.40;99.90
36856;DHT22;22788;51.434;6.786;2023-02-15T11:51:48;7.40;99.90
36856;DHT22;22788;51.434;6.786;2023-02-15T11:54:14;7.30;99.90
36856;DHT22;22788;51.434;6.786;2023-02-15T11:56:40;7.30;99.90
36856;DHT22;22788;51.434;6.786;2023-02-15T11:59:11;7.30;99.90
36856;DHT22;22788;51.434;6.786;2023-02-15T12:01:42;7.30;99.90
36856;DHT22;22788;51.434;6.786;2023-02-15T12:04:13;7.30;99.90
36856;DHT22;22788;51.434;6.786;2023-02-15T12:06:45;7.30;99.90
36856;DHT22;22788;51.434;6.786;2023-02-15T12:09:18;7.30;99.90
36856;DHT22;22788;51.434;6.786;2023-02-15T12:11:46;7.30;99.90
36856;DHT22;22788;51.434;6.786;2023-02-15T12:14:13;7.20;99.90
36856;DHT22;22788;51.434;6.786;2023-02-15T12:16:42;7.30;99.90
36856;DHT22;22788;51.434;6.786;2023-02-15T12:19:23;7.30;99.90
36856;DHT22;22788;51.434;6.786;2023-02-15T12:21:52;7.20;99.90
36856;DHT22;22788;51.434;6.786;2023-02-15T12:24:20;7.30;99.90
36856;DHT22;22788;51.434;6.786;2023-02-15T12:26:56;7.40;99.90
36856;DHT22;22788;51.434;6.786;2023-02-15T12:29:27;7.40;99.90
36856;DHT22;22788;51.434;6.786;2023-02-15T12:31:55;7.50;99.90
36856;DHT22;22788;51.434;6.786;2023-02-15T12:34:23;7.60;99.90
36856;DHT22;22788;51.434;6.786;2023-02-15T12:36:53;7.60;99.90
36856;DHT22;22788;51.434;6.786;2023-02-15T12:39:22;7.70;99.90
36856;DHT22;22788;51.434;6.786;2023-02-15T12:42:08;7.70;99.90
36856;DHT22;22788;51.434;6.786;2023-02-15T12:44:53;7.80;99.90
36856;DHT22;22788;51.434;6.786;2023-02-15T12:47:20;7.80;99.90
36856;DHT22;22788;51.434;6.786;2023-02-15T12:50:10;7.70;99.90
36856;DHT22;22788;51.434;6.786;2023-02-15T12:52:37;7.90;99.90
36856;DHT22;22788;51.434;6.786;2023-02-15T12:55:17;7.90;99.90
36856;DHT22;22788;51.434;6.786;2023-02-15T12:57:44;7.80;99.90
36856;DHT22;22788;51.434;6.786;2023-02-15T13:00:26;7.70;99.90
36856;DHT22;22788;51.434;6.786;2023-02-15T13:02:54;7.80;99.90
36856;DHT22;22788;51.434;6.786;2023-02-15T13:05:24;7.80;99.90
36856;DHT22;22788;51.434;6.786;2023-02-15T13:07:55;7.80;99.90
36856;DHT22;22788;51.434;6.786;2023-02-15T13:10:25;7.90;99.90
36856;DHT22;22788;51.434;6.786;2023-02-15T13:12:52;7.90;99.90
36856;DHT22;22788;51.434;6.786;2023-02-15T13:15:28;7.90;99.90
36856;DHT22;22788;51.434;6.786;2023-02-15T13:17:57;7.80;99.90
36856;DHT22;22788;51.434;6.786;2023-02-15T13:20:25;7.90;99.90
36856;DHT22;22788;51.434;6.786;2023-02-15T13:22:54;7.80;99.90
36856;DHT22;22788;51.434;6.786;2023-02-15T13:25:25;7.70;99.90
36856;DHT22;22788;51.434;6.786;2023-02-15T13:27:54;7.90;99.90
36856;DHT22;22788;51.434;6.786;2023-02-15T13:30:25;7.90;99.90
36856;DHT22;22788;51.434;6.786;2023-02-15T13:32:54;7.90;99.90
36856;DHT22;22788;51.434;6.786;2023-02-15T13:35:21;8.00;99.90
36856;DHT22;22788;51.434;6.786;2023-02-15T13:37:58;8.10;99.90
36856;DHT22;22788;51.434;6.786;2023-02-15T13:40:32;8.10;99.90
36856;DHT22;22788;51.434;6.786;2023-02-15T13:43:02;8.10;99.90
36856;DHT22;22788;51.434;6.786;2023-02-15T13:45:39;8.10;99.90
36856;DHT22;22788;51.434;6.786;2023-02-15T13:48:14;8.20;99.90
36856;DHT22;22788;51.434;6.786;2023-02-15T13:50:53;8.20;99.90
36856;DHT22;22788;51.434;6.786;2023-02-15T13:53:38;8.20;99.90
36856;DHT22;22788;51.434;6.786;2023-02-15T13:56:14;8.10;99.90
36856;DHT22;22788;51.434;6.786;2023-02-15T13:59:20;8.20;99.90
36856;DHT22;22788;51.434;6.786;2023-02-15T14:01:56;8.30;99.90
36856;DHT22;22788;51.434;6.786;2023-02-15T14:04:36;8.50;99.90
36856;DHT22;22788;51.434;6.786;2023-02-15T14:07:26;8.50;99.90
36856;DHT22;22788;51.434;6.786;2023-02-15T14:10:11;8.60;99.90
36856;DHT22;22788;51.434;6.786;2023-02-15T14:12:50;8.60;99.90
36856;DHT22;22788;51.434;6.786;2023-02-15T14:15:28;8.60;99.90
36856;DHT22;22788;51.434;6.786;2023-02-15T14:18:13;8.70;99.90
36856;DHT22;22788;51.434;6.786;2023-02-15T14:20:47;8.90;99.90
36856;DHT22;22788;51.434;6.786;2023-02-15T14:23:26;8.90;99.90
36856;DHT22;22788;51.434;6.786;2023-02-15T14:25:58;8.80;99.90
36856;DHT22;22788;51.434;6.786;2023-02-15T14:28:28;8.70;99.90
36856;DHT22;22788;51.434;6.786;2023-02-15T14:30:57;8.60;99.90
36856;DHT22;22788;51.434;6.786;2023-02-15T14:33:31;8.80;99.90
36856;DHT22;22788;51.434;6.786;2023-02-15T14:35:58;9.00;99.90
36856;DHT22;22788;51.434;6.786;2023-02-15T14:38:37;8.90;99.90
36856;DHT22;22788;51.434;6.786;2023-02-15T14:41:09;8.80;99.90
36856;DHT22;22788;51.434;6.786;2023-02-15T14:43:51;8.60;99.90
36856;DHT22;22788;51.434;6.786;2023-02-15T14:46:24;8.50;99.90
36856;DHT22;22788;51.434;6.786;2023-02-15T14:48:55;8.50;99.90
36856;DHT22;22788;51.434;6.786;2023-02-15T14:54:55;8.60;99.90
36856;DHT22;22788;51.434;6.786;2023-02-15T14:59:54;8.90;99.90
36856;DHT22;22788;51.434;6.786;2023-02-15T15:02:22;8.80;99.90
36856;DHT22;22788;51.434;6.786;2023-02-15T15:04:57;8.80;99.90
36856;DHT22;22788;51.434;6.786;2023-02-15T15:07:25;8.70;99.90
36856;DHT22;22788;51.434;6.786;2023-02-15T15:09:59;8.70;99.90
36856;DHT22;22788;51.434;6.786;2023-02-15T15:12:39;8.80;99.90
36856;DHT22;22788;51.434;6.786;2023-02-15T15:15:07;8.80;99.90
36856;DHT22;22788;51.434;6.786;2023-02-15T15:17:56;8.80;99.90
36856;DHT22;22788;51.434;6.786;2023-02-15T15:20:45;8.80;99.90
36856;DHT22;22788;51.434;6.786;2023-02-15T15:23:41;8.90;99.90
36856;DHT22;22788;51.434;6.786;2023-02-15T15:26:25;8.80;99.90
36856;DHT22;22788;51.434;6.786;2023-02-15T15:28:56;8.90;99.90
36856;DHT22;22788;51.434;6.786;2023-02-15T15:31:26;8.90;99.90
36856;DHT22;22788;51.434;6.786;2023-02-15T15:37:15;9.10;99.90
36856;DHT22;22788;51.434;6.786;2023-02-15T15:40:26;9.00;99.90
36856;DHT22;22788;51.434;6.786;2023-02-15T15:45:54;9.10;99.90
36856;DHT22;22788;51.434;6.786;2023-02-15T15:48:30;9.10;99.90
36856;DHT22;22788;51.434;6.786;2023-02-15T15:55:57;9.20;99.90
36856;DHT22;22788;51.434;6.786;2023-02-15T15:58:24;9.30;99.90
36856;DHT22;22788;51.434;6.786;2023-02-15T16:00:52;9.30;99.90
36856;DHT22;22788;51.434;6.786;2023-02-15T16:03:22;9.00;99.90
36856;DHT22;22788;51.434;6.786;2023-02-15T16:05:48;9.30;99.90
36856;DHT22;22788;51.434;6.786;2023-02-15T16:08:27;9.30;99.90
36856;DHT22;22788;51.434;6.786;2023-02-15T16:10:54;9.10;99.90
36856;DHT22;22788;51.434;6.786;2023-02-15T16:13:20;9.10;99.90
36856;DHT22;22788;51.434;6.786;2023-02-15T16:15:48;9.40;99.90
36856;DHT22;22788;51.434;6.786;2023-02-15T16:18:16;9.30;99.90
36856;DHT22;22788;51.434;6.786;2023-02-15T16:20:49;9.00;99.90
36856;DHT22;22788;51.434;6.786;2023-02-15T17:38:34;8.60;99.90
36856;DHT22;22788;51.434;6.786;2023-02-15T17:41:01;8.50;99.90
36856;DHT22;22788;51.434;6.786;2023-02-15T17:43:27;8.30;99.90
36856;DHT22;22788;51.434;6.786;2023-02-15T17:45:54;8.50;99.90
36856;DHT22;22788;51.434;6.786;2023-02-15T17:48:24;8.50;99.90
36856;DHT22;22788;51.434;6.786;2023-02-15T17:50:52;8.40;99.90
36856;DHT22;22788;51.434;6.786;2023-02-15T17:53:18;8.50;99.90
36856;DHT22;22788;51.434;6.786;2023-02-15T17:55:45;8.40;99.90
36856;DHT22;22788;51.434;6.786;2023-02-15T17:58:12;8.60;99.90
36856;DHT22;22788;51.434;6.786;2023-02-15T18:00:41;8.60;99.90
36856;DHT22;22788;51.434;6.786;2023-02-15T18:03:10;8.50;99.90
36856;DHT22;22788;51.434;6.786;2023-02-15T18:05:36;8.50;99.90
36856;DHT22;22788;51.434;6.786;2023-02-15T18:08:03;8.50;99.90
36856;DHT22;22788;51.434;6.786;2023-02-15T18:10:29;8.50;99.90
36856;DHT22;22788;51.434;6.786;2023-02-15T18:12:55;8.50;99.90
36856;DHT22;22788;51.434;6.786;2023-02-15T18:15:21;8.70;99.90
36856;DHT22;22788;51.434;6.786;2023-02-15T18:17:47;8.50;99.90
36856;DHT22;22788;51.434;6.786;2023-02-15T18:20:19;8.40;99.90
36856;DHT22;22788;51.434;6.786;2023-02-15T18:22:46;8.80;99.90
36856;DHT22;22788;51.434;6.786;2023-02-15T18:25:13;8.60;99.90
36856;DHT22;22788;51.434;6.786;2023-02-15T18:27:39;8.50;99.90
36856;DHT22;22788;51.434;6.786;2023-02-15T18:30:06;8.40;99.90
36856;DHT22;22788;51.434;6.786;2023-02-15T18:32:35;8.50;99.90
36856;DHT22;22788;51.434;6.786;2023-02-15T18:35:03;8.40;99.90
36856;DHT22;22788;51.434;6.786;2023-02-15T18:37:31;8.40;99.90
36856;DHT22;22788;51.434;6.786;2023-02-15T18:39:58;8.80;99.90
36856;DHT22;22788;51.434;6.786;2023-02-15T18:42:26;8.40;99.90
36856;DHT22;22788;51.434;6.786;2023-02-15T18:44:55;8.00;99.90
36856;DHT22;22788;51.434;6.786;2023-02-15T18:47:22;8.40;99.90
36856;DHT22;22788;51.434;6.786;2023-02-15T18:49:48;8.60;99.90
36856;DHT22;22788;51.434;6.786;2023-02-15T18:52:15;8.40;99.90
36856;DHT22;22788;51.434;6.786;2023-02-15T18:54:43;8.40;99.90
36856;DHT22;22788;51.434;6.786;2023-02-15T18:57:12;8.40;99.90
36856;DHT22;22788;51.434;6.786;2023-02-15T18:59:40;8.40;99.90
36856;DHT22;22788;51.434;6.786;2023-02-15T19:02:11;8.40;99.90
36856;DHT22;22788;51.434;6.786;2023-02-15T19:04:39;8.40;99.90
36856;DHT22;22788;51.434;6.786;2023-02-15T19:07:14;8.40;99.90
36856;DHT22;22788;51.434;6.786;2023-02-15T19:09:46;8.30;99.90
36856;DHT22;22788;51.434;6.786;2023-02-15T19:12:15;8.60;99.90
36856;DHT22;22788;51.434;6.786;2023-02-15T19:14:43;8.40;99.90
36856;DHT22;22788;51.434;6.786;2023-02-15T19:17:14;8.40;99.90
36856;DHT22;22788;51.434;6.786;2023-02-15T19:19:43;8.30;99.90
36856;DHT22;22788;51.434;6.786;2023-02-15T19:22:13;8.30;99.90
36856;DHT22;22788;51.434;6.786;2023-02-15T19:24:44;8.30;99.90
36856;DHT22;22788;51.434;6.786;2023-02-15T19:27:20;8.40;99.90
36856;DHT22;22788;51.434;6.786;2023-02-15T19:29:48;8.30;99.90
36856;DHT22;22788;51.434;6.786;2023-02-15T19:32:16;8.30;99.90
36856;DHT22;22788;51.434;6.786;2023-02-15T19:34:44;8.30;99.90
36856;DHT22;22788;51.434;6.786;2023-02-15T19:37:21;8.70;99.90
36856;DHT22;22788;51.434;6.786;2023-02-15T19:39:52;8.50;99.90
36856;DHT22;22788;51.434;6.786;2023-02-15T19:42:24;8.20;99.90
36856;DHT22;22788;51.434;6.786;2023-02-15T19:44:52;8.50;99.90
36856;DHT22;22788;51.434;6.786;2023-02-15T19:47:21;8.10;99.90
36856;DHT22;22788;51.434;6.786;2023-02-15T19:49:48;8.50;99.90
36856;DHT22;22788;51.434;6.786;2023-02-15T19:52:18;8.40;99.90
36856;DHT22;22788;51.434;6.786;2023-02-15T19:54:47;8.30;99.90
36856;DHT22;22788;51.434;6.786;2023-02-15T19:57:17;8.10;99.90
36856;DHT22;22788;51.434;6.786;2023-02-15T19:59:43;7.10;99.90
36856;DHT22;22788;51.434;6.786;2023-02-15T20:02:12;9.40;99.90
36856;DHT22;22788;51.434;6.786;2023-02-15T20:04:38;9.60;99.90
36856;DHT22;22788;51.434;6.786;2023-02-15T20:07:08;8.20;99.90
36856;DHT22;22788;51.434;6.786;2023-02-15T20:09:39;8.20;99.90
36856;DHT22;22788;51.434;6.786;2023-02-15T20:12:19;8.30;99.90
36856;DHT22;22788;51.434;6.786;2023-02-15T20:14:45;8.20;99.90
36856;DHT22;22788;51.434;6.786;2023-02-15T20:17:11;8.40;99.90
36856;DHT22;22788;51.434;6.786;2023-02-15T20:19:37;8.20;99.90
36856;DHT22;22788;51.434;6.786;2023-02-15T20:22:03;8.20;99.90
36856;DHT22;22788;51.434;6.786;2023-02-15T20:24:30;8.20;99.90
36856;DHT22;22788;51.434;6.786;2023-02-15T20:26:56;8.10;99.90
36856;DHT22;22788;51.434;6.786;2023-02-15T20:29:23;8.10;99.90
36856;DHT22;22788;51.434;6.786;2023-02-15T20:31:49;8.10;99.90
36856;DHT22;22788;51.434;6.786;2023-02-15T20:34:15;8.50;99.90
36856;DHT22;22788;51.434;6.786;2023-02-15T20:36:42;8.20;99.90
36856;DHT22;22788;51.434;6.786;2023-02-15T20:39:13;8.10;99.90
36856;DHT22;22788;51.434;6.786;2023-02-15T20:41:39;8.00;99.90
36856;DHT22;22788;51.434;6.786;2023-02-15T20:44:16;8.10;99.90
36856;DHT22;22788;51.434;6.786;2023-02-15T20:46:44;8.30;99.90
36856;DHT22;22788;51.434;6.786;2023-02-15T20:49:10;8.50;99.90
36856;DHT22;22788;51.434;6.786;2023-02-15T20:51:37;8.80;99.90
36856;DHT22;22788;51.434;6.786;2023-02-15T20:54:11;8.80;99.90
36856;DHT22;22788;51.434;6.786;2023-02-15T20:56:37;8.10;99.90
36856;DHT22;22788;51.434;6.786;2023-02-15T20:59:10;8.20;99.90
36856;DHT22;22788;51.434;6.786;2023-02-15T21:01:43;8.10;99.90
36856;DHT22;22788;51.434;6.786;2023-02-15T21:04:15;8.10;99.90
36856;DHT22;22788;51.434;6.786;2023-02-15T21:06:42;8.10;99.90
36856;DHT22;22788;51.434;6.786;2023-02-15T21:09:11;8.00;99.90
36856;DHT22;22788;51.434;6.786;2023-02-15T21:11:37;8.20;99.90
36856;DHT22;22788;51.434;6.786;2023-02-15T21:14:03;8.10;99.90
36856;DHT22;22788;51.434;6.786;2023-02-15T21:16:30;7.90;99.90
36856;DHT22;22788;51.434;6.786;2023-02-15T21:18:57;9.80;99.90
36856;DHT22;22788;51.434;6.786;2023-02-15T21:21:23;7.90;99.90
36856;DHT22;22788;51.434;6.786;2023-02-15T21:23:50;8.00;99.90
36856;DHT22;22788;51.434;6.786;2023-02-15T21:26:19;8.10;99.90
36856;DHT22;22788;51.434;6.786;2023-02-15T21:28:45;8.20;99.90
36856;DHT22;22788;51.434;6.786;2023-02-15T21:31:15;8.00;99.90
36856;DHT22;22788;51.434;6.786;2023-02-15T21:33:41;8.10;99.90
36856;DHT22;22788;51.434;6.786;2023-02-15T21:36:13;8.10;99.90
36856;DHT22;22788;51.434;6.786;2023-02-15T21:38:39;8.10;99.90
36856;DHT22;22788;51.434;6.786;2023-02-15T21:41:07;8.10;99.90
36856;DHT22;22788;51.434;6.786;2023-02-15T21:43:36;7.90;99.90
36856;DHT22;22788;51.434;6.786;2023-02-15T21:46:10;8.10;99.90
36856;DHT22;22788;51.434;6.786;2023-02-15T21:48:37;8.10;99.90
36856;DHT22;22788;51.434;6.786;2023-02-15T21:51:03;8.00;99.90
36856;DHT22;22788;51.434;6.786;2023-02-15T21:53:32;8.10;99.90
36856;DHT22;22788;51.434;6.786;2023-02-15T21:56:00;8.00;99.90
36856;DHT22;22788;51.434;6.786;2023-02-15T21:58:29;7.90;99.90
36856;DHT22;22788;51.434;6.786;2023-02-15T22:00:57;7.90;99.90
36856;DHT22;22788;51.434;6.786;2023-02-15T22:03:25;7.60;99.90
36856;DHT22;22788;51.434;6.786;2023-02-15T22:05:52;8.00;99.90
36856;DHT22;22788;51.434;6.786;2023-02-15T22:08:18;8.00;99.90
36856;DHT22;22788;51.434;6.786;2023-02-15T22:10:46;8.00;99.90
36856;DHT22;22788;51.434;6.786;2023-02-15T22:13:14;8.00;99.90
36856;DHT22;22788;51.434;6.786;2023-02-15T22:15:41;8.00;99.90
36856;DHT22;22788;51.434;6.786;2023-02-15T22:18:18;7.90;99.90
36856;DHT22;22788;51.434;6.786;2023-02-15T22:20:44;7.90;99.90
36856;DHT22;22788;51.434;6.786;2023-02-15T22:23:10;7.90;99.90
36856;DHT22;22788;51.434;6.786;2023-02-15T22:25:36;7.80;99.90
36856;DHT22;22788;51.434;6.786;2023-02-15T22:28:04;8.00;99.90
36856;DHT22;22788;51.434;6.786;2023-02-15T22:30:32;7.90;99.90
36856;DHT22;22788;51.434;6.786;2023-02-15T22:32:59;8.00;99.90
36856;DHT22;22788;51.434;6.786;2023-02-15T22:35:28;7.90;99.90
36856;DHT22;22788;51.434;6.786;2023-02-15T22:37:54;7.90;99.90
36856;DHT22;22788;51.434;6.786;2023-02-15T22:40:22;7.90;99.90
36856;DHT22;22788;51.434;6.786;2023-02-15T22:42:52;7.90;99.90
36856;DHT22;22788;51.434;6.786;2023-02-15T22:45:22;7.90;99.90
36856;DHT22;22788;51.434;6.786;2023-02-15T22:47:51;7.90;99.90
36856;DHT22;22788;51.434;6.786;2023-02-15T22:50:19;7.90;99.90
36856;DHT22;22788;51.434;6.786;2023-02-15T22:52:46;7.90;99.90
36856;DHT22;22788;51.434;6.786;2023-02-15T22:55:13;7.90;99.90
36856;DHT22;22788;51.434;6.786;2023-02-15T22:57:39;7.90;99.90
36856;DHT22;22788;51.434;6.786;2023-02-15T23:00:07;7.70;99.90
36856;DHT22;22788;51.434;6.786;2023-02-15T23:02:34;7.80;99.90
36856;DHT22;22788;51.434;6.786;2023-02-15T23:05:00;7.80;99.90
36856;DHT22;22788;51.434;6.786;2023-02-15T23:07:27;7.70;99.90
36856;DHT22;22788;51.434;6.786;2023-02-15T23:09:53;7.80;99.90
36856;DHT22;22788;51.434;6.786;2023-02-15T23:12:23;7.80;99.90
36856;DHT22;22788;51.434;6.786;2023-02-15T23:14:50;7.90;99.90
36856;DHT22;22788;51.434;6.786;2023-02-15T23:17:16;7.80;99.90
36856;DHT22;22788;51.434;6.786;2023-02-15T23:19:44;7.90;99.90
36856;DHT22;22788;51.434;6.786;2023-02-15T23:22:12;8.00;99.90
36856;DHT22;22788;51.434;6.786;2023-02-15T23:24:39;7.80;99.90
36856;DHT22;22788;51.434;6.786;2023-02-15T23:27:05;7.60;99.90
36856;DHT22;22788;51.434;6.786;2023-02-15T23:29:31;7.80;99.90
36856;DHT22;22788;51.434;6.786;2023-02-15T23:31:57;7.80;99.90
36856;DHT22;22788;51.434;6.786;2023-02-15T23:34:25;8.00;99.90
36856;DHT22;22788;51.434;6.786;2023-02-15T23:36:53;7.80;99.90
36856;DHT22;22788;51.434;6.786;2023-02-15T23:39:21;7.70;99.90
36856;DHT22;22788;51.434;6.786;2023-02-15T23:41:48;7.60;99.90
36856;DHT22;22788;51.434;6.786;2023-02-15T23:44:14;7.60;99.90
36856;DHT22;22788;51.434;6.786;2023-02-15T23:46:42;7.70;99.90
36856;DHT22;22788;51.434;6.786;2023-02-15T23:49:10;7.70;99.90
36856;DHT22;22788;51.434;6.786;2023-02-15T23:51:36;7.40;99.90
36856;DHT22;22788;51.434;6.786;2023-02-15T23:54:04;7.40;99.90
36856;DHT22;22788;51.434;6.786;2023-02-15T23:56:30;7.60;99.90
36856;DHT22;22788;51.434;6.786;2023-02-15T23:58:56;7.70;99.90
